Time;durP1;ratioP1;P1;durP2;ratioP2;P2;SDS_P1;SDS_P2;PMS_P1;PMS_P2;Temp;Humidity;BMP_temperature;BMP_pressure;BME280_temperature;BME280_humidity;BME280_pressure;Samples;Min_cycle;Max_cycle;Signal;HPM_P1;HPM_P2
2021/05/17 00:02:05;;;;;;;2.83;1.48;;;;;;;9.60;95.77;99382.56;5024685;28;20472;-78
2021/05/17 00:04:33;;;;;;;3.78;1.80;;;;;;;9.57;95.20;99373.09;5061222;28;20049;-79
2021/05/17 00:07:03;;;;;;;2.25;1.70;;;;;;;9.63;94.59;99370.00;5045274;28;20037;-79
2021/05/17 00:09:31;;;;;;;2.75;1.60;;;;;;;9.81;94.13;99369.56;5073627;28;20063;-77
2021/05/17 00:11:59;;;;;;;3.65;1.70;;;;;;;9.64;95.18;99370.88;5084755;28;20048;-78
2021/05/17 00:14:28;;;;;;;7.22;2.08;;;;;;;9.42;95.94;99379.50;5077295;28;20068;-78
2021/05/17 00:16:56;;;;;;;3.38;1.95;;;;;;;9.26;96.77;99378.94;5065858;28;20075;-77
2021/05/17 00:19:24;;;;;;;4.00;1.95;;;;;;;9.16;97.29;99378.78;5081222;28;20091;-77
2021/05/17 00:21:52;;;;;;;3.78;1.77;;;;;;;9.11;98.23;99375.66;5059475;28;20072;-79
2021/05/17 00:24:19;;;;;;;4.75;2.28;;;;;;;9.04;98.01;99382.28;5070972;28;20063;-78
2021/05/17 00:26:47;;;;;;;5.00;2.28;;;;;;;8.94;99.22;99374.25;5060383;28;20091;-78
2021/05/17 00:29:15;;;;;;;3.53;2.13;;;;;;;8.91;99.47;99374.44;5081395;28;20060;-79
2021/05/17 00:31:44;;;;;;;6.65;1.95;;;;;;;8.91;99.57;99378.88;5072382;28;20060;-78
2021/05/17 00:34:11;;;;;;;3.67;1.92;;;;;;;8.85;100.00;99377.53;5070276;28;20116;-79
2021/05/17 00:36:39;;;;;;;3.25;2.08;;;;;;;8.92;100.00;99376.16;5067859;28;20066;-79
2021/05/17 00:39:09;;;;;;;2.58;1.80;;;;;;;9.16;100.00;99370.91;5056696;28;21031;-78
2021/05/17 00:41:37;;;;;;;3.88;1.80;;;;;;;9.05;99.52;99379.56;5048207;28;20036;-79
2021/05/17 00:44:05;;;;;;;5.20;1.80;;;;;;;9.04;100.00;99375.25;5067350;28;20067;-79
2021/05/17 00:46:33;;;;;;;2.35;1.63;;;;;;;9.35;98.19;99384.34;5071989;28;20128;-77
2021/05/17 00:49:01;;;;;;;3.53;1.55;;;;;;;9.21;98.57;99376.66;5061083;28;20128;-77
2021/05/17 00:51:28;;;;;;;2.22;1.85;;;;;;;9.18;98.96;99379.50;5069461;28;20568;-79
2021/05/17 00:53:56;;;;;;;7.47;1.80;;;;;;;9.00;99.65;99378.22;5055986;28;20060;-77
2021/05/17 00:56:25;;;;;;;3.17;2.10;;;;;;;8.87;100.00;99375.63;5077811;28;20115;-78
2021/05/17 00:58:52;;;;;;;3.17;1.75;;;;;;;8.88;100.00;99379.94;5079241;28;20111;-79
2021/05/17 01:01:19;;;;;;;4.15;1.88;;;;;;;8.75;100.00;99376.53;5047614;28;20263;-78
2021/05/17 01:03:46;;;;;;;3.20;1.80;;;;;;;8.68;100.00;99381.34;5087351;28;20080;-78
2021/05/17 01:06:17;;;;;;;2.58;1.75;;;;;;;8.59;100.00;99374.97;5070551;28;20560;-77
2021/05/17 01:09:04;;;;;;;3.10;1.80;;;;;;;8.63;100.00;99372.97;5036204;28;20111;-80
2021/05/17 01:11:32;;;;;;;3.13;1.58;;;;;;;9.01;100.00;99372.03;5062836;28;20083;-78
2021/05/17 01:14:02;;;;;;;5.10;2.00;;;;;;;8.89;100.00;99371.13;5075124;28;20141;-78
2021/05/17 01:16:30;;;;;;;3.72;2.28;;;;;;;8.78;100.00;99365.78;5061716;28;20052;-78
2021/05/17 01:18:58;;;;;;;3.10;1.80;;;;;;;8.68;100.00;99362.16;5058267;28;20063;-79
2021/05/17 01:21:29;;;;;;;2.78;1.40;;;;;;;8.80;100.00;99354.25;5072776;28;20047;-78
2021/05/17 01:23:56;;;;;;;3.03;2.05;;;;;;;9.00;100.00;99354.59;5056683;28;20047;-79
2021/05/17 01:26:25;;;;;;;2.00;1.70;;;;;;;9.17;99.46;99364.69;5066401;28;20079;-78
2021/05/17 01:28:56;;;;;;;2.47;1.70;;;;;;;9.09;99.84;99360.00;5053569;28;20067;-80
2021/05/17 01:31:24;;;;;;;2.65;1.70;;;;;;;8.91;100.00;99361.34;5075885;28;20179;-78
2021/05/17 01:33:52;;;;;;;9.05;2.38;;;;;;;8.67;100.00;99365.72;5047424;28;20068;-79
2021/05/17 01:36:20;;;;;;;4.07;2.13;;;;;;;8.54;100.00;99363.97;5068185;28;20181;-78
2021/05/17 01:38:49;;;;;;;4.55;1.98;;;;;;;8.50;100.00;99372.16;5078414;28;20112;-78
2021/05/17 01:41:18;;;;;;;1.90;1.67;;;;;;;8.53;100.00;99372.78;5049420;28;20048;-79
2021/05/17 01:43:47;;;;;;;2.65;1.90;;;;;;;8.62;100.00;99372.13;5039609;28;20592;-78
2021/05/17 01:46:20;;;;;;;3.67;2.15;;;;;;;8.47;100.00;99373.22;5074990;28;20099;-80
2021/05/17 01:48:47;;;;;;;7.05;3.45;;;;;;;8.42;100.00;99374.47;5072022;28;20024;-77
2021/05/17 01:51:17;;;;;;;6.75;3.88;;;;;;;8.47;100.00;99375.00;5085691;28;20040;-77
2021/05/17 01:53:45;;;;;;;4.95;2.28;;;;;;;8.46;100.00;99375.94;5081965;22;20049;-79
2021/05/17 01:56:13;;;;;;;4.68;2.72;;;;;;;8.54;100.00;99374.44;5039683;28;20040;-77
2021/05/17 01:58:40;;;;;;;4.80;2.20;;;;;;;8.60;100.00;99383.66;5041061;28;20044;-79
2021/05/17 02:01:13;;;;;;;3.58;2.42;;;;;;;8.55;100.00;99386.63;5034060;28;20337;-74
2021/05/17 02:03:46;;;;;;;3.08;1.95;;;;;;;8.44;100.00;99393.56;5058906;28;20599;-77
2021/05/17 02:06:14;;;;;;;3.33;2.20;;;;;;;8.41;100.00;99386.75;5037064;28;20037;-77
2021/05/17 02:08:47;;;;;;;3.88;2.08;;;;;;;8.44;100.00;99389.16;5051037;28;20067;-76
2021/05/17 02:11:16;;;;;;;4.88;3.42;;;;;;;8.30;100.00;99386.63;5037402;28;20138;-75
2021/05/17 02:13:45;;;;;;;4.32;2.83;;;;;;;8.42;100.00;99391.06;5055588;28;20534;-75
2021/05/17 02:16:13;;;;;;;4.80;2.38;;;;;;;8.59;100.00;99388.09;5041931;28;20062;-74
2021/05/17 02:18:42;;;;;;;2.90;2.35;;;;;;;8.56;100.00;99392.72;5037320;28;20062;-75
2021/05/17 02:21:10;;;;;;;3.00;2.30;;;;;;;8.48;100.00;99379.31;5029834;28;20057;-79
2021/05/17 02:23:38;;;;;;;2.97;2.20;;;;;;;8.60;100.00;99384.53;5046274;28;20110;-80
2021/05/17 02:26:06;;;;;;;4.63;2.58;;;;;;;8.51;100.00;99390.44;5047715;28;20059;-76
2021/05/17 02:28:37;;;;;;;5.97;3.03;;;;;;;8.46;100.00;99387.25;5043601;28;20135;-77
2021/05/17 02:31:06;;;;;;;4.40;2.53;;;;;;;8.44;100.00;99383.94;5027957;28;20261;-76
2021/05/17 02:33:34;;;;;;;3.60;2.67;;;;;;;8.81;100.00;99382.16;5066328;28;20163;-81
2021/05/17 02:36:02;;;;;;;2.90;1.90;;;;;;;9.20;100.00;99392.53;5025731;28;20056;-77
2021/05/17 02:38:30;;;;;;;4.18;1.95;;;;;;;9.48;98.99;99391.34;5019587;28;20100;-76
2021/05/17 02:40:58;;;;;;;4.05;1.88;;;;;;;9.49;97.95;99396.47;5060286;28;20048;-75
2021/05/17 02:43:26;;;;;;;2.05;1.52;;;;;;;9.61;98.14;99398.19;5024604;28;20135;-76
2021/05/17 02:45:53;;;;;;;3.60;1.63;;;;;;;9.55;98.26;99397.81;5034948;28;20049;-75
2021/05/17 02:48:27;;;;;;;2.28;1.67;;;;;;;9.60;97.49;99407.03;5046202;28;20590;-75
2021/05/17 02:50:54;;;;;;;5.88;1.63;;;;;;;9.67;97.19;99404.78;5051240;28;20135;-75
2021/05/17 02:53:28;;;;;;;2.17;1.65;;;;;;;9.87;95.49;99409.38;5017731;28;20072;-75
2021/05/17 02:55:56;;;;;;;3.08;1.52;;;;;;;9.78;95.22;99406.63;5046927;28;20428;-75
2021/05/17 02:58:28;;;;;;;5.22;1.52;;;;;;;9.80;94.94;99410.78;5033550;28;20044;-75
2021/05/17 03:01:09;;;;;;;2.63;1.63;;;;;;;9.80;96.07;99405.53;5023537;28;20384;-75
2021/05/17 03:03:43;;;;;;;5.00;1.90;;;;;;;9.83;96.21;99407.94;5055253;28;20065;-74
2021/05/17 03:06:21;;;;;;;3.78;1.90;;;;;;;9.76;97.62;99395.38;5015898;28;20456;-76
2021/05/17 03:08:53;;;;;;;9.40;2.20;;;;;;;9.87;98.16;99398.88;5059239;28;20090;-77
2021/05/17 03:11:21;;;;;;;5.55;2.50;;;;;;;10.02;98.50;99410.00;5022410;28;20525;-77
2021/05/17 03:13:51;;;;;;;4.80;2.08;;;;;;;10.06;98.58;99413.25;5022124;28;20044;-78
2021/05/17 03:16:24;;;;;;;6.13;2.70;;;;;;;10.06;100.00;99414.09;5038738;28;20064;-75
2021/05/17 03:18:53;;;;;;;5.20;2.28;;;;;;;9.98;100.00;99413.00;5019366;28;20549;-78
2021/05/17 03:21:24;;;;;;;4.63;2.28;;;;;;;9.99;100.00;99415.50;5026843;28;20131;-75
2021/05/17 03:23:53;;;;;;;4.47;2.42;;;;;;;9.89;100.00;99422.41;5031287;28;20041;-76
2021/05/17 03:26:22;;;;;;;3.70;2.55;;;;;;;9.97;100.00;99413.94;5033782;28;20276;-76
2021/05/17 03:28:50;;;;;;;2.63;2.38;;;;;;;10.07;100.00;99425.44;5004400;28;20467;-76
2021/05/17 03:31:17;;;;;;;7.07;2.50;;;;;;;9.92;100.00;99423.97;5033034;28;20049;-74
2021/05/17 03:33:45;;;;;;;8.30;3.10;;;;;;;9.83;100.00;99428.97;5041778;28;20061;-76
2021/05/17 03:36:12;;;;;;;9.38;3.25;;;;;;;9.64;100.00;99431.31;5035349;28;20134;-75
2021/05/17 03:38:39;;;;;;;12.05;4.32;;;;;;;9.50;100.00;99429.69;5022839;28;20121;-75
2021/05/17 03:41:07;;;;;;;7.70;3.70;;;;;;;9.31;100.00;99426.72;5033085;28;20049;-75
2021/05/17 03:43:35;;;;;;;7.05;3.33;;;;;;;9.45;100.00;99426.53;5033050;28;20373;-74
2021/05/17 03:46:02;;;;;;;8.13;4.20;;;;;;;9.47;100.00;99427.28;5037994;28;20047;-74
2021/05/17 03:48:29;;;;;;;9.10;3.70;;;;;;;9.38;100.00;99422.69;5047475;28;20049;-75
2021/05/17 03:50:57;;;;;;;7.40;3.50;;;;;;;9.45;100.00;99429.16;5031672;28;20052;-80
2021/05/17 03:53:24;;;;;;;6.70;3.58;;;;;;;9.67;100.00;99425.78;5024271;28;20051;-75
2021/05/17 03:55:51;;;;;;;10.77;4.50;;;;;;;9.85;100.00;99434.09;5051369;28;20051;-77
2021/05/17 03:58:18;;;;;;;8.85;3.25;;;;;;;9.90;100.00;99434.59;5050554;28;20148;-73
2021/05/17 04:00:45;;;;;;;6.20;2.78;;;;;;;10.01;100.00;99441.69;5033887;28;20091;-75
2021/05/17 04:03:16;;;;;;;9.60;4.05;;;;;;;9.80;100.00;99442.31;5049517;28;20459;-75
2021/05/17 04:14:00;;;;;;;9.27;4.15;;;;;;;9.66;100.00;99444.31;5057805;28;20426;-75
2021/05/17 04:16:27;;;;;;;4.70;4.18;;;;;;;9.76;100.00;99450.56;5013855;28;20053;-76
2021/05/17 04:18:55;;;;;;;8.65;4.35;;;;;;;9.66;100.00;99454.81;5039476;28;20116;-76
2021/05/17 04:21:22;;;;;;;8.38;4.88;;;;;;;9.74;100.00;99453.31;5054322;28;20052;-75
2021/05/17 04:23:49;;;;;;;7.30;3.95;;;;;;;9.64;100.00;99460.19;5017599;28;20053;-77
2021/05/17 04:26:16;;;;;;;11.50;5.13;;;;;;;9.58;100.00;99460.63;5038841;28;20060;-74
2021/05/17 04:28:43;;;;;;;5.82;5.18;;;;;;;9.53;100.00;99462.75;5035896;28;20041;-77
2021/05/17 04:31:10;;;;;;;7.63;4.47;;;;;;;9.75;100.00;99464.66;5036860;28;20475;-75
2021/05/17 04:33:38;;;;;;;6.50;3.78;;;;;;;9.79;100.00;99464.31;5057712;28;20511;-77
2021/05/17 04:36:05;;;;;;;4.35;3.95;;;;;;;9.82;100.00;99469.34;5044673;28;20063;-76
2021/05/17 04:38:32;;;;;;;5.30;3.53;;;;;;;9.96;100.00;99472.75;5035161;28;20069;-81
2021/05/17 04:40:59;;;;;;;8.80;5.07;;;;;;;10.22;100.00;99473.41;5051085;28;20232;-77
2021/05/17 04:43:26;;;;;;;4.50;3.17;;;;;;;10.33;100.00;99476.94;5053560;28;20093;-75
2021/05/17 04:45:56;;;;;;;6.00;3.47;;;;;;;10.39;100.00;99478.25;5037811;28;20047;-75
2021/05/17 04:48:23;;;;;;;5.63;3.55;;;;;;;10.32;100.00;99480.53;5067192;22;20940;-69
2021/05/17 04:50:50;;;;;;;5.20;3.60;;;;;;;10.61;100.00;99480.06;5037634;28;20104;-69
2021/05/17 04:53:17;;;;;;;3.42;2.67;;;;;;;11.00;100.00;99489.28;5018280;28;20050;-70
2021/05/17 04:55:44;;;;;;;5.97;3.42;;;;;;;11.27;100.00;99485.44;5041739;28;20450;-70
2021/05/17 04:58:12;;;;;;;8.65;3.70;;;;;;;11.15;100.00;99489.88;5028365;28;20423;-68
2021/05/17 05:00:39;;;;;;;4.65;2.60;;;;;;;11.06;99.90;99488.81;5048498;28;20048;-70
2021/05/17 05:03:06;;;;;;;5.75;3.00;;;;;;;11.21;100.00;99486.75;5056094;28;20121;-70
2021/05/17 05:05:33;;;;;;;6.15;3.05;;;;;;;11.52;98.81;99487.75;5047916;28;20036;-70
2021/05/17 05:08:01;;;;;;;3.92;2.80;;;;;;;12.29;95.95;99473.53;5051400;28;20151;-71
2021/05/17 05:10:28;;;;;;;7.68;4.13;;;;;;;14.31;84.07;99467.06;5049921;28;20144;-69
2021/05/17 05:12:55;;;;;;;2.92;2.00;;;;;;;16.10;73.72;99471.00;5074297;28;20053;-69
2021/05/17 05:15:25;;;;;;;4.22;2.15;;;;;;;17.39;67.79;99474.56;5061273;28;20084;-70
2021/05/17 05:17:53;;;;;;;4.50;2.15;;;;;;;18.68;61.82;99464.09;5060041;28;20385;-71
2021/05/17 05:20:20;;;;;;;5.88;2.20;;;;;;;20.06;55.75;99474.25;5064926;28;20542;-69
2021/05/17 05:22:47;;;;;;;4.28;2.20;;;;;;;20.79;52.17;99476.25;5068979;28;20048;-70
2021/05/17 05:25:16;;;;;;;4.93;1.80;;;;;;;19.73;53.94;99483.34;5026404;28;20032;-69
2021/05/17 05:27:49;;;;;;;3.45;1.70;;;;;;;19.28;55.77;99483.25;5047725;28;20084;-68
2021/05/17 05:32:56;;;;;;;16.85;3.35;;;;;;;19.89;54.76;99485.06;5054129;28;20530;-69
2021/05/17 05:35:24;;;;;;;10.35;2.20;;;;;;;21.52;50.35;99477.19;5058547;28;20120;-69
2021/05/17 05:37:51;;;;;;;8.32;2.28;;;;;;;22.28;47.57;99472.19;5063451;28;20495;-70
2021/05/17 05:40:18;;;;;;;2.67;1.52;;;;;;;22.77;46.80;99471.28;5046570;28;20072;-70
2021/05/17 05:42:46;;;;;;;4.63;1.40;;;;;;;24.81;41.60;99473.81;5043095;28;20052;-69
2021/05/17 05:45:13;;;;;;;9.85;2.35;;;;;;;25.62;39.56;99474.16;5051701;28;20044;-67
2021/05/17 05:47:40;;;;;;;3.20;1.58;;;;;;;26.36;37.19;99479.88;5068258;28;20106;-67
2021/05/17 05:50:08;;;;;;;3.08;1.40;;;;;;;23.48;42.77;99481.78;5069111;28;20047;-72
2021/05/17 05:52:37;;;;;;;5.57;1.60;;;;;;;20.50;51.08;99487.75;5054473;28;20573;-67
2021/05/17 05:55:05;;;;;;;2.80;1.30;;;;;;;19.81;51.74;99501.13;5066048;28;20143;-69
2021/05/17 05:57:39;;;;;;;3.67;1.38;;;;;;;18.53;56.57;99500.44;5057175;28;20130;-68
2021/05/17 06:00:08;;;;;;;4.35;1.45;;;;;;;17.26;62.28;99500.78;5064366;28;20146;-68
2021/05/17 06:02:36;;;;;;;2.08;1.45;;;;;;;16.29;65.07;99499.19;5062658;28;20083;-68
2021/05/17 06:05:05;;;;;;;4.20;1.35;;;;;;;16.58;65.05;99498.91;5065700;28;20049;-67
2021/05/17 06:07:32;;;;;;;4.85;1.83;;;;;;;16.98;64.20;99504.66;5061087;28;20056;-69
2021/05/17 06:10:04;;;;;;;2.65;1.60;;;;;;;16.92;64.67;99504.28;5043839;28;20059;-68
2021/05/17 06:12:32;;;;;;;4.15;1.52;;;;;;;16.87;63.57;99500.44;5050442;28;20140;-68
2021/05/17 06:15:03;;;;;;;2.97;1.52;;;;;;;17.60;62.83;99502.53;5073973;28;20473;-70
2021/05/17 06:17:31;;;;;;;2.10;1.40;;;;;;;21.02;51.56;99497.56;5046021;28;20653;-69
2021/05/17 06:19:58;;;;;;;2.42;1.10;;;;;;;21.31;49.50;99496.75;5039081;28;20048;-68
2021/05/17 06:22:26;;;;;;;2.67;1.52;;;;;;;19.54;54.02;99509.63;5059986;28;20491;-70
2021/05/17 06:24:55;;;;;;;2.05;1.35;;;;;;;18.00;57.77;99499.13;5055440;28;20402;-69
2021/05/17 06:27:22;;;;;;;5.82;1.52;;;;;;;17.37;59.14;99511.13;5052011;28;20048;-70
2021/05/17 06:29:53;;;;;;;5.05;1.92;;;;;;;17.14;61.65;99508.19;5062320;28;20048;-69
2021/05/17 06:32:21;;;;;;;2.50;1.38;;;;;;;16.74;62.84;99513.31;5067546;28;20067;-69
2021/05/17 06:34:49;;;;;;;3.28;1.60;;;;;;;17.38;60.26;99519.91;5066017;28;20484;-70
2021/05/17 06:37:16;;;;;;;5.07;1.42;;;;;;;18.03;57.64;99505.97;5069789;28;20068;-68
2021/05/17 06:39:43;;;;;;;6.05;1.20;;;;;;;18.50;57.72;99513.28;5047515;28;20584;-70
2021/05/17 06:42:11;;;;;;;3.47;1.17;;;;;;;17.96;58.02;99514.59;5074592;28;20069;-70
2021/05/17 06:44:39;;;;;;;4.32;1.45;;;;;;;17.75;59.28;99518.75;5038261;28;20140;-68
2021/05/17 06:47:09;;;;;;;3.88;1.13;;;;;;;17.15;61.47;99519.66;5071125;28;20143;-67
2021/05/17 06:49:37;;;;;;;2.50;1.13;;;;;;;16.97;63.40;99514.44;5008883;28;20131;-70
2021/05/17 06:52:06;;;;;;;5.15;1.35;;;;;;;16.87;63.02;99513.72;5070019;28;20045;-70
2021/05/17 06:54:34;;;;;;;3.70;1.60;;;;;;;17.32;61.79;99510.75;5047925;28;20051;-71
2021/05/17 06:59:33;;;;;;;5.03;1.67;;;;;;;18.64;56.70;99513.44;5067186;28;20056;-70
2021/05/17 07:02:00;;;;;;;2.95;1.50;;;;;;;18.82;54.47;99517.75;5038137;28;20131;-69
2021/05/17 07:04:29;;;;;;;5.18;1.10;;;;;;;18.51;55.31;99520.25;5034748;28;20080;-69
2021/05/17 07:06:59;;;;;;;5.95;1.30;;;;;;;18.59;56.47;99512.25;5047586;28;20063;-68
2021/05/17 07:13:14;;;;;;;5.97;1.25;;;;;;;18.76;54.77;99505.09;5049596;28;20733;-69
2021/05/17 07:15:41;;;;;;;4.60;1.58;;;;;;;19.75;52.30;99503.69;5045679;28;20040;-67
2021/05/17 07:18:09;;;;;;;10.30;1.50;;;;;;;20.57;50.90;99498.53;5061772;28;20080;-68
2021/05/17 07:25:58;;;;;;;2.67;1.15;;;;;;;27.83;33.35;99499.66;5049258;28;20072;-69
2021/05/17 07:28:26;;;;;;;4.72;1.20;;;;;;;28.89;31.14;99497.09;5067332;28;20075;-68
2021/05/17 07:30:54;;;;;;;4.75;1.10;;;;;;;28.86;30.21;99500.25;5040663;28;20067;-69
2021/05/17 07:33:21;;;;;;;4.80;1.15;;;;;;;29.57;29.42;99496.38;5052433;28;20074;-69
2021/05/17 07:35:48;;;;;;;6.15;1.10;;;;;;;30.24;28.37;99493.00;5044249;28;20053;-69
2021/05/17 07:38:17;;;;;;;9.98;1.35;;;;;;;28.27;30.00;99511.88;5073427;28;20083;-69
2021/05/17 07:40:45;;;;;;;4.00;1.60;;;;;;;28.62;30.34;99513.81;5065359;28;20052;-68
2021/05/17 07:43:12;;;;;;;3.58;1.10;;;;;;;28.88;29.62;99517.94;5068632;28;20503;-69
2021/05/17 07:45:47;;;;;;;2.85;1.55;;;;;;;29.00;29.61;99507.97;5049368;28;20048;-69
2021/05/17 07:48:15;;;;;;;2.97;1.20;;;;;;;29.17;28.25;99515.34;5034574;28;20054;-71
2021/05/17 07:50:42;;;;;;;2.80;0.98;;;;;;;28.98;28.92;99512.78;5063558;28;20064;-70
2021/05/17 07:53:10;;;;;;;3.88;1.83;;;;;;;29.03;28.61;99512.06;5048647;28;20776;-74
2021/05/17 07:55:37;;;;;;;3.25;1.23;;;;;;;30.54;25.87;99514.38;5037561;28;20862;-69
2021/05/17 07:58:05;;;;;;;2.42;1.33;;;;;;;31.22;24.71;99515.91;5050326;28;20056;-68
2021/05/17 08:00:32;;;;;;;3.85;1.25;;;;;;;30.03;26.37;99524.34;5065100;28;20151;-68
2021/05/17 08:03:00;;;;;;;7.20;1.27;;;;;;;30.00;26.15;99525.69;5067748;28;20512;-69
2021/05/17 08:05:29;;;;;;;7.93;1.17;;;;;;;29.62;27.13;99518.16;5049704;28;20049;-71
2021/05/17 08:07:56;;;;;;;5.05;1.10;;;;;;;29.06;28.21;99514.31;5068533;28;20055;-71
2021/05/17 08:10:24;;;;;;;4.72;1.00;;;;;;;29.42;27.41;99524.00;5063075;28;20057;-69
2021/05/17 08:12:51;;;;;;;3.47;0.90;;;;;;;29.51;26.79;99517.13;5050219;28;20131;-69
2021/05/17 08:15:19;;;;;;;16.73;2.10;;;;;;;28.88;27.91;99523.34;5071645;28;20136;-70
2021/05/17 08:17:46;;;;;;;2.60;0.93;;;;;;;29.76;26.14;99533.09;5075355;28;20060;-69
2021/05/17 08:20:14;;;;;;;5.18;1.02;;;;;;;29.24;27.25;99530.41;5057146;28;20084;-70
2021/05/17 08:22:41;;;;;;;9.05;1.60;;;;;;;28.73;27.60;99531.16;5085627;28;20052;-69
2021/05/17 08:25:09;;;;;;;9.35;1.52;;;;;;;28.79;28.15;99535.63;5064489;28;20079;-71
2021/05/17 08:27:36;;;;;;;3.65;1.67;;;;;;;28.21;28.81;99539.88;5034484;28;20036;-70
2021/05/17 08:30:05;;;;;;;3.63;1.17;;;;;;;25.67;32.14;99538.19;5068652;28;20044;-70
2021/05/17 08:32:32;;;;;;;9.25;1.95;;;;;;;24.04;34.62;99547.88;5085212;28;20053;-69
2021/05/17 08:34:59;;;;;;;3.05;0.90;;;;;;;23.05;37.10;99550.97;5039610;28;20058;-71
2021/05/17 08:37:27;;;;;;;3.53;0.82;;;;;;;22.69;38.60;99552.75;5039586;28;20628;-71
2021/05/17 08:39:54;;;;;;;1.73;0.70;;;;;;;20.76;41.90;99559.56;5051951;28;20110;-69
2021/05/17 08:42:30;;;;;;;1.58;0.70;;;;;;;20.58;43.43;99553.69;5052784;28;20045;-69
2021/05/17 08:44:57;;;;;;;4.45;0.98;;;;;;;20.98;43.36;99552.44;5034956;28;20051;-69
2021/05/17 08:47:24;;;;;;;3.60;0.50;;;;;;;21.05;41.59;99549.88;5056651;28;20118;-70
2021/05/17 08:49:52;;;;;;;1.88;0.82;;;;;;;21.00;42.59;99547.75;5044641;28;20162;-70
2021/05/17 08:52:19;;;;;;;4.40;0.82;;;;;;;20.90;42.26;99553.38;5064876;28;20049;-68
2021/05/17 08:54:46;;;;;;;4.03;1.90;;;;;;;21.06;42.71;99544.34;5070409;28;20140;-69
2021/05/17 08:57:17;;;;;;;5.90;1.05;;;;;;;20.92;43.04;99547.84;5051945;28;20147;-69
2021/05/17 08:59:44;;;;;;;3.90;1.33;;;;;;;21.14;42.63;99546.94;5024841;28;20057;-68
2021/05/17 09:02:12;;;;;;;6.05;1.50;;;;;;;20.54;43.62;99547.06;5052189;28;20036;-69
2021/05/17 09:05:01;;;;;;;8.82;3.63;;;;;;;19.88;45.63;99558.19;5027287;28;20095;-69
2021/05/17 09:07:33;;;;;;;7.25;1.50;;;;;;;19.44;46.80;99555.22;5061299;28;20078;-68
2021/05/17 09:10:12;;;;;;;5.53;1.33;;;;;;;19.76;46.21;99556.91;5047478;28;20080;-69
2021/05/17 09:13:12;;;;;;;3.72;0.98;;;;;;;20.09;44.95;99556.75;5063348;28;20102;-68
2021/05/17 09:15:45;;;;;;;3.92;0.80;;;;;;;20.44;43.41;99555.28;5046905;28;20574;-69
2021/05/17 09:18:27;;;;;;;3.45;0.70;;;;;;;20.35;44.17;99561.69;5052742;28;20473;-69
2021/05/17 09:20:56;;;;;;;4.07;0.85;;;;;;;20.92;41.93;99558.53;5046662;28;20048;-68
2021/05/17 09:23:31;;;;;;;2.67;0.70;;;;;;;21.15;41.43;99553.09;5039099;28;20076;-67
2021/05/17 09:26:27;;;;;;;1.67;0.88;;;;;;;20.40;42.37;99548.66;5051226;28;20049;-69
2021/05/17 09:28:54;;;;;;;1.40;0.70;;;;;;;19.58;44.01;99557.16;5046985;28;20102;-66
2021/05/17 09:31:23;;;;;;;1.95;0.60;;;;;;;18.94;46.72;99554.53;5069813;28;20605;-68
2021/05/17 09:33:55;;;;;;;3.08;0.70;;;;;;;18.93;46.63;99546.72;5066551;28;20064;-72
2021/05/17 09:36:31;;;;;;;0.80;0.50;;;;;;;18.61;47.46;99551.09;5051501;28;20139;-68
2021/05/17 09:39:05;;;;;;;5.00;0.80;;;;;;;18.57;48.34;99557.75;5050962;28;20057;-69
2021/05/17 09:41:56;;;;;;;3.33;0.70;;;;;;;18.23;48.27;99560.56;5062366;28;20068;-69
2021/05/17 09:44:27;;;;;;;3.75;1.08;;;;;;;17.91;48.22;99561.34;5050270;28;20055;-69
2021/05/17 09:47:08;;;;;;;1.92;0.82;;;;;;;18.20;48.82;99561.75;5055164;28;20510;-69
2021/05/17 09:49:48;;;;;;;2.92;1.02;;;;;;;19.00;46.67;99557.53;5050808;28;20056;-69
2021/05/17 09:52:17;;;;;;;3.60;1.45;;;;;;;19.88;44.23;99560.88;5051673;28;20483;-69
2021/05/17 09:54:50;;;;;;;4.70;1.25;;;;;;;19.65;44.79;99563.50;5048732;28;20051;-69
2021/05/17 09:57:38;;;;;;;2.85;0.90;;;;;;;19.67;43.86;99569.47;5047898;28;20139;-69
2021/05/17 10:00:07;;;;;;;1.80;0.50;;;;;;;19.57;44.59;99573.34;5037705;28;20063;-69
2021/05/17 10:02:36;;;;;;;3.90;0.70;;;;;;;18.58;46.04;99572.72;5063050;28;20079;-69
2021/05/17 10:05:33;;;;;;;5.32;1.45;;;;;;;18.68;48.30;99576.03;5051714;28;20040;-69
2021/05/17 10:08:12;;;;;;;4.55;1.58;;;;;;;18.70;47.25;99568.75;5054157;28;20053;-67
2021/05/17 10:10:43;;;;;;;4.35;1.27;;;;;;;18.63;47.37;99577.56;5052258;28;20127;-69
2021/05/17 10:13:10;;;;;;;4.30;0.90;;;;;;;18.56;47.76;99582.75;5052395;28;20051;-70
2021/05/17 10:15:38;;;;;;;2.58;1.05;;;;;;;19.04;46.91;99581.03;5062403;28;20102;-70
2021/05/17 10:18:12;;;;;;;3.50;0.90;;;;;;;19.49;45.44;99575.03;5022268;28;20045;-69
2021/05/17 10:20:40;;;;;;;2.05;0.63;;;;;;;19.17;45.39;99578.66;5067864;28;20129;-67
2021/05/17 10:23:08;;;;;;;2.08;1.05;;;;;;;19.06;45.54;99573.69;5071973;28;20049;-70
2021/05/17 10:25:40;;;;;;;3.55;1.13;;;;;;;19.08;45.03;99578.84;5067483;28;20182;-69
2021/05/17 10:28:10;;;;;;;4.18;0.80;;;;;;;18.91;46.43;99586.91;5070129;28;20055;-68
2021/05/17 10:30:38;;;;;;;3.78;0.70;;;;;;;18.87;46.09;99584.75;5061192;28;20513;-70
2021/05/17 10:33:27;;;;;;;3.40;0.95;;;;;;;19.04;45.03;99589.03;5067993;28;20158;-68
2021/05/17 10:35:54;;;;;;;3.88;0.77;;;;;;;19.30;45.49;99582.63;5050415;28;20559;-68
2021/05/17 10:38:29;;;;;;;2.92;0.90;;;;;;;19.27;45.22;99582.97;5035784;28;20049;-68
2021/05/17 10:44:08;;;;;;;2.70;0.50;;;;;;;18.71;45.18;99577.59;5069815;28;20498;-70
2021/05/17 10:46:40;;;;;;;4.85;1.70;;;;;;;19.08;45.94;99569.00;5053530;28;20053;-72
2021/05/17 10:49:27;;;;;;;2.08;0.68;;;;;;;19.25;44.69;99583.16;5057661;23;20094;-78
2021/05/17 10:51:57;;;;;;;1.92;0.70;;;;;;;19.17;44.54;99569.81;5072633;28;20056;-78
2021/05/17 10:54:27;;;;;;;2.65;1.00;;;;;;;18.92;45.40;99572.56;5074358;28;20496;-78
2021/05/17 10:56:57;;;;;;;3.88;1.70;;;;;;;18.77;45.93;99570.75;5045147;28;20125;-81
2021/05/17 11:02:28;;;;;;;1.92;0.95;;;;;;;19.71;44.59;99568.13;5061451;28;20106;-79
2021/05/17 11:05:01;;;;;;;3.13;0.60;;;;;;;20.15;44.22;99564.84;5057595;28;20067;-78
2021/05/17 11:07:30;;;;;;;1.17;0.50;;;;;;;20.34;42.28;99565.38;5054957;28;20044;-76
2021/05/17 11:10:08;;;;;;;3.60;1.30;;;;;;;19.70;43.14;99555.78;5058660;28;20459;-77
2021/05/17 11:12:42;;;;;;;3.35;1.13;;;;;;;19.43;43.76;99558.91;5075043;28;20061;-78
2021/05/17 11:15:19;;;;;;;3.72;0.82;;;;;;;19.39;43.90;99552.25;5071631;28;20043;-77
2021/05/17 11:18:01;;;;;;;4.75;0.80;;;;;;;19.31;44.16;99554.94;5085190;28;20052;-77
2021/05/17 11:20:38;;;;;;;1.85;0.50;;;;;;;19.29;44.04;99551.63;5088999;28;20079;-78
2021/05/17 11:23:25;;;;;;;1.90;0.60;;;;;;;19.17;43.45;99551.16;5056206;28;20252;-79
2021/05/17 11:26:05;;;;;;;1.90;0.80;;;;;;;18.87;44.38;99536.75;5074460;28;20060;-81
2021/05/17 11:28:33;;;;;;;2.20;0.60;;;;;;;19.17;43.36;99549.31;5042622;28;20774;-79
2021/05/17 11:31:13;;;;;;;1.17;0.40;;;;;;;19.61;41.11;99543.50;5064684;28;20065;-82
2021/05/17 11:34:02;;;;;;;1.52;0.77;;;;;;;19.85;41.65;99547.03;5061772;28;20087;-83
2021/05/17 11:36:43;;;;;;;2.50;0.50;;;;;;;19.44;41.05;99549.88;5045569;28;20041;-81
2021/05/17 11:39:14;;;;;;;0.98;0.30;;;;;;;19.32;42.53;99553.91;5057362;28;20421;-81
2021/05/17 11:41:47;;;;;;;2.63;0.75;;;;;;;19.57;41.52;99552.00;5064793;28;20044;-79
2021/05/17 11:44:24;;;;;;;2.53;0.82;;;;;;;19.88;40.66;99557.38;5034328;28;20080;-83
2021/05/17 11:47:01;;;;;;;1.35;0.65;;;;;;;20.27;40.29;99551.09;5059185;28;20086;-79
2021/05/17 11:49:31;;;;;;;4.43;0.65;;;;;;;20.71;40.32;99545.88;5070616;28;20051;-81
2021/05/17 11:52:01;;;;;;;2.63;0.60;;;;;;;20.80;38.90;99542.09;5026282;28;20129;-81
2021/05/17 11:54:40;;;;;;;3.90;0.77;;;;;;;20.66;38.26;99542.91;5065919;28;20071;-80
2021/05/17 11:57:10;;;;;;;5.82;1.00;;;;;;;20.28;39.62;99550.06;5037462;28;20040;-81
2021/05/17 11:59:39;;;;;;;1.50;0.60;;;;;;;20.87;37.65;99537.69;5034240;28;20083;-82
2021/05/17 12:02:11;;;;;;;2.30;0.70;;;;;;;21.11;38.29;99533.06;5056535;28;20057;-82
2021/05/17 12:04:39;;;;;;;5.20;0.70;;;;;;;20.93;37.79;99536.94;5037126;28;20094;-82
2021/05/17 12:07:09;;;;;;;1.50;0.65;;;;;;;21.06;36.27;99541.66;5057042;28;20116;-81
2021/05/17 12:09:54;;;;;;;0.93;0.50;;;;;;;20.94;36.30;99538.63;5040504;28;20057;-81
2021/05/17 12:12:23;;;;;;;4.82;0.52;;;;;;;21.12;37.04;99540.94;5059527;28;20099;-80
2021/05/17 12:14:52;;;;;;;3.85;0.65;;;;;;;20.72;38.55;99540.34;5042003;28;20056;-81
2021/05/17 12:17:20;;;;;;;1.33;0.80;;;;;;;20.70;38.49;99539.69;5035626;28;20203;-81